createdAt,value
2022-08-22T00:00:19.186Z,1.97
2022-08-22T00:02:43.870Z,1.00
2022-08-22T00:02:45.362Z,1.30
2022-08-22T00:03:04.820Z,1.00
2022-08-22T00:03:11.075Z,0.98
2022-08-22T00:05:54.613Z,1.50
2022-08-22T00:08:39.536Z,1.55
2022-08-22T00:11:08.622Z,1.45
2022-08-22T00:13:45.713Z,1.60
2022-08-22T00:16:20.741Z,1.50
2022-08-22T00:19:08.537Z,1.60
2022-08-22T00:22:05.043Z,1.63
2022-08-22T00:25:02.378Z,1.27
2022-08-22T00:28:00.588Z,1.37
2022-08-22T00:30:29.149Z,1.35
2022-08-22T00:33:05.016Z,1.40
2022-08-22T00:35:44.956Z,1.02
2022-08-22T00:38:22.617Z,1.83
2022-08-22T00:41:07.574Z,1.57
2022-08-22T00:43:52.571Z,1.58
2022-08-22T00:46:46.567Z,1.48
2022-08-22T00:49:44.444Z,1.50
2022-08-22T00:52:29.511Z,1.42
2022-08-22T00:55:28.995Z,1.10
2022-08-22T00:58:35.555Z,1.50
2022-08-22T01:01:07.822Z,2.03
2022-08-22T01:04:01.656Z,1.60
2022-08-22T01:06:54.154Z,1.30
2022-08-22T01:09:48.141Z,1.30
2022-08-22T01:12:39.366Z,1.10
2022-08-22T01:15:11.774Z,1.30
2022-08-22T01:18:16.783Z,1.50
2022-08-22T01:21:02.159Z,1.65
2022-08-22T01:24:05.911Z,1.30
2022-08-22T01:26:53.474Z,1.30
2022-08-22T01:30:16.472Z,1.42
2022-08-22T01:32:53.921Z,1.25
2022-08-22T01:35:49.601Z,1.75
2022-08-22T01:38:44.676Z,1.30
2022-08-22T01:41:28.172Z,1.20
2022-08-22T01:44:37.548Z,1.27
2022-08-22T01:47:12.176Z,1.50
2022-08-22T01:49:52.047Z,1.58
2022-08-22T01:52:41.667Z,1.40
2022-08-22T01:55:46.074Z,1.40
2022-08-22T01:58:16.651Z,1.55
2022-08-22T02:01:21.781Z,1.25
2022-08-22T02:03:51.129Z,1.73
2022-08-22T02:06:24.652Z,1.50
2022-08-22T02:09:06.284Z,1.40
2022-08-22T02:11:50.796Z,1.65
2022-08-22T02:14:36.503Z,1.70
2022-08-22T02:17:25.739Z,1.65
2022-08-22T02:20:03.416Z,1.07
2022-08-22T02:23:08.229Z,1.90
2022-08-22T02:25:49.021Z,1.98
2022-08-22T02:28:57.136Z,1.65
2022-08-22T02:31:37.893Z,1.40
2022-08-22T02:34:24.545Z,1.93
2022-08-22T02:37:03.078Z,1.50
2022-08-22T02:39:38.464Z,2.20
2022-08-22T02:42:22.887Z,1.80
2022-08-22T02:45:00.562Z,1.33
2022-08-22T02:47:46.135Z,1.40
2022-08-22T02:50:47.315Z,1.30
2022-08-22T02:53:21.884Z,1.80
2022-08-22T02:55:56.592Z,1.70
2022-08-22T02:58:53.484Z,1.85
2022-08-22T03:01:26.095Z,1.60
2022-08-22T03:04:12.960Z,1.40
2022-08-22T03:06:43.580Z,1.90
2022-08-22T03:09:15.877Z,1.73
2022-08-22T03:11:47.340Z,1.80
2022-08-22T03:14:32.343Z,2.00
2022-08-22T03:17:14.516Z,1.73
2022-08-22T03:20:00.303Z,1.60
2022-08-22T03:22:47.054Z,1.70
2022-08-22T03:25:30.747Z,1.48
2022-08-22T03:28:06.386Z,1.37
2022-08-22T03:30:40.646Z,1.85
2022-08-22T03:33:22.912Z,2.03
2022-08-22T03:35:49.897Z,1.85
2022-08-22T03:38:34.399Z,1.67
2022-08-22T03:41:13.057Z,1.70
2022-08-22T03:43:58.309Z,1.80
2022-08-22T03:46:52.765Z,1.50
2022-08-22T03:49:31.169Z,1.30
2022-08-22T03:52:16.401Z,1.60
2022-08-22T03:54:59.767Z,1.50
2022-08-22T03:57:29.302Z,1.70
2022-08-22T04:00:09.399Z,1.30
2022-08-22T04:03:08.317Z,1.42
2022-08-22T04:05:45.039Z,1.52
2022-08-22T04:08:31.783Z,1.40
2022-08-22T04:10:58.176Z,1.38
2022-08-22T04:13:58.777Z,1.77
2022-08-22T04:16:46.642Z,1.70
2022-08-22T04:19:28.082Z,1.90
2022-08-22T04:22:04.890Z,1.33
2022-08-22T04:24:52.860Z,1.60
2022-08-22T04:27:41.268Z,1.73
2022-08-22T04:30:20.032Z,2.10
2022-08-22T04:33:09.770Z,1.48
2022-08-22T04:35:44.224Z,1.70
2022-08-22T04:38:17.222Z,1.88
2022-08-22T04:40:50.715Z,2.35
2022-08-22T04:43:28.042Z,1.80
2022-08-22T04:46:01.071Z,2.88
2022-08-22T04:48:34.154Z,1.97
2022-08-22T04:51:09.152Z,2.10
2022-08-22T04:53:53.701Z,2.03
2022-08-22T04:56:35.933Z,2.00
2022-08-22T04:59:10.373Z,1.77
2022-08-22T05:01:42.656Z,2.33
2022-08-22T05:04:14.466Z,2.10
2022-08-22T05:06:47.780Z,1.92
2022-08-22T05:09:18.959Z,2.05
2022-08-22T05:11:51.504Z,2.15
2022-08-22T05:14:25.957Z,1.83
2022-08-22T05:16:55.450Z,1.98
2022-08-22T05:19:32.346Z,2.05
2022-08-22T05:21:59.171Z,1.98
2022-08-22T05:24:46.438Z,1.85
2022-08-22T05:27:22.043Z,2.47
2022-08-22T05:29:53.753Z,1.80
2022-08-22T05:32:30.852Z,2.20
2022-08-22T05:35:03.545Z,2.50
2022-08-22T05:37:48.910Z,1.85
2022-08-22T05:40:24.709Z,2.23
2022-08-22T05:42:53.143Z,2.67
2022-08-22T05:45:21.394Z,2.45
2022-08-22T05:47:52.740Z,3.40
2022-08-22T05:50:31.659Z,2.20
2022-08-22T05:52:59.036Z,3.30
2022-08-22T05:55:25.450Z,2.38
2022-08-22T05:58:21.343Z,2.50
2022-08-22T06:01:03.695Z,2.30
2022-08-22T06:03:37.489Z,2.80
2022-08-22T06:06:16.472Z,3.20
2022-08-22T06:08:55.286Z,2.63
2022-08-22T06:11:39.498Z,2.30
2022-08-22T06:14:50.972Z,3.47
2022-08-22T06:17:24.998Z,3.00
2022-08-22T06:19:53.910Z,2.97
2022-08-22T06:22:31.291Z,2.75
2022-08-22T06:25:08.506Z,2.75
2022-08-22T06:27:36.234Z,2.38
2022-08-22T06:30:04.639Z,2.40
2022-08-22T06:32:59.564Z,3.27
2022-08-22T06:35:50.850Z,2.60
2022-08-22T06:38:20.179Z,2.55
2022-08-22T06:40:47.145Z,2.75
2022-08-22T06:43:13.811Z,3.05
2022-08-22T06:45:41.467Z,3.00
2022-08-22T06:48:08.595Z,2.42
2022-08-22T06:50:39.593Z,2.38
2022-08-22T06:53:11.667Z,2.70
2022-08-22T06:55:41.883Z,2.55
2022-08-22T06:58:20.478Z,2.60
2022-08-22T07:01:11.132Z,2.40
2022-08-22T07:03:59.896Z,2.97
2022-08-22T07:06:38.597Z,3.20
2022-08-22T07:09:07.001Z,3.13
2022-08-22T07:11:39.546Z,3.13
2022-08-22T07:14:11.594Z,3.67
2022-08-22T07:16:43.017Z,3.25
2022-08-22T07:19:21.820Z,3.53
2022-08-22T07:21:49.049Z,3.42
2022-08-22T07:24:24.526Z,3.27
2022-08-22T07:27:13.182Z,3.20
2022-08-22T07:30:10.219Z,3.10
2022-08-22T07:32:42.125Z,2.60
2022-08-22T07:35:15.763Z,3.33
2022-08-22T07:37:48.179Z,3.60
2022-08-22T07:40:27.562Z,4.25
2022-08-22T07:43:00.827Z,3.35
2022-08-22T07:45:33.452Z,3.53
2022-08-22T07:48:26.557Z,3.28
2022-08-22T07:51:17.514Z,3.83
2022-08-22T07:54:05.335Z,4.07
2022-08-22T07:56:40.067Z,3.10
2022-08-22T07:59:12.998Z,3.45
2022-08-22T08:01:48.295Z,3.03
2022-08-22T08:04:20.746Z,3.23
2022-08-22T08:06:51.018Z,3.65
2022-08-22T08:09:19.693Z,3.42
2022-08-22T08:11:49.226Z,3.28
2022-08-22T08:14:16.679Z,3.10
2022-08-22T08:16:56.825Z,3.40
2022-08-22T08:19:24.929Z,2.67
2022-08-22T08:21:55.346Z,2.83
2022-08-22T08:24:42.495Z,3.10
2022-08-22T08:27:34.915Z,2.67
2022-08-22T08:30:11.147Z,2.47
2022-08-22T08:32:42.976Z,2.65
2022-08-22T08:35:28.260Z,1.83
2022-08-22T08:38:03.590Z,2.08
2022-08-22T08:40:32.890Z,2.88
2022-08-22T08:43:35.035Z,2.50
2022-08-22T08:46:31.639Z,2.45
2022-08-22T08:49:01.077Z,2.45
2022-08-22T08:51:47.373Z,3.53
2022-08-22T08:54:55.711Z,2.38
2022-08-22T08:57:40.365Z,3.53
2022-08-22T09:00:15.917Z,2.22
2022-08-22T09:02:59.470Z,3.00
2022-08-22T09:05:53.872Z,2.92
2022-08-22T09:08:35.564Z,2.30
2022-08-22T09:11:12.135Z,2.63
2022-08-22T09:14:14.176Z,2.33
2022-08-22T09:17:12.149Z,2.42
2022-08-22T09:19:44.517Z,3.20
2022-08-22T09:22:50.122Z,2.97
2022-08-22T09:25:38.663Z,2.63
2022-08-22T09:28:35.633Z,2.60
2022-08-22T09:31:02.530Z,2.40
2022-08-22T09:34:05.957Z,2.03
2022-08-22T09:36:42.917Z,1.60
2022-08-22T09:39:17.880Z,1.53
2022-08-22T09:42:01.035Z,2.28
2022-08-22T09:45:19.809Z,2.40
2022-08-22T09:48:15.768Z,2.78
2022-08-22T09:51:28.744Z,2.78
2022-08-22T09:54:06.982Z,1.90
2022-08-22T09:57:01.522Z,1.70
2022-08-22T09:59:54.843Z,2.20
2022-08-22T10:02:32.311Z,1.83
2022-08-22T10:05:40.352Z,1.60
2022-08-22T10:08:19.982Z,2.27
2022-08-22T10:10:54.747Z,1.77
2022-08-22T10:13:36.372Z,1.90
2022-08-22T10:16:19.411Z,1.42
2022-08-22T10:19:08.075Z,1.65
2022-08-22T10:21:49.833Z,2.50
2022-08-22T10:24:25.399Z,2.67
2022-08-22T10:26:56.418Z,1.50
2022-08-22T10:29:52.185Z,2.17
2022-08-22T10:32:49.166Z,2.33
2022-08-22T10:35:25.592Z,1.50
2022-08-22T10:38:03.849Z,1.40
2022-08-22T10:40:49.353Z,1.65
2022-08-22T10:43:38.887Z,1.95
2022-08-22T10:46:15.454Z,2.10
2022-08-22T10:48:51.915Z,1.40
2022-08-22T10:51:22.627Z,2.30
2022-08-22T10:54:07.586Z,1.73
2022-08-22T10:56:49.976Z,1.45
2022-08-22T10:59:45.403Z,1.50
2022-08-22T11:02:30.754Z,1.90
2022-08-22T11:05:28.463Z,1.40
2022-08-22T11:08:09.090Z,1.10
2022-08-22T11:10:53.762Z,1.77
2022-08-22T11:13:32.703Z,2.10
2022-08-22T11:16:24.958Z,1.10
2022-08-22T11:19:02.874Z,1.27
2022-08-22T11:21:38.664Z,1.70
2022-08-22T11:24:36.162Z,1.38
2022-08-22T11:27:37.995Z,1.27
2022-08-22T11:30:09.407Z,1.40
2022-08-22T11:33:02.764Z,1.30
2022-08-22T11:35:56.176Z,1.48
2022-08-22T11:38:37.823Z,1.00
2022-08-22T11:41:12.865Z,1.52
2022-08-22T11:43:50.871Z,1.33
2022-08-22T11:46:35.393Z,0.90
2022-08-22T11:49:44.647Z,1.48
2022-08-22T11:52:20.121Z,1.50
2022-08-22T11:55:07.143Z,1.25
2022-08-22T11:57:38.973Z,1.37
2022-08-22T12:00:34.309Z,0.98
2022-08-22T12:03:40.762Z,1.77
2022-08-22T12:06:35.011Z,1.17
2022-08-22T12:09:03.695Z,1.52
2022-08-22T12:11:42.168Z,1.30
2022-08-22T12:14:27.076Z,1.30
2022-08-22T12:17:50.979Z,1.23
2022-08-22T12:20:31.982Z,1.13
2022-08-22T12:23:01.569Z,1.30
2022-08-22T12:25:44.477Z,1.70
2022-08-22T12:28:31.797Z,1.10
2022-08-22T12:31:07.263Z,1.13
2022-08-22T12:33:54.818Z,1.15
2022-08-22T12:36:50.848Z,1.40
2022-08-22T12:39:55.960Z,1.60
2022-08-22T12:43:10.867Z,1.20
2022-08-22T12:45:37.299Z,1.73
2022-08-22T12:48:27.206Z,1.92
2022-08-22T12:51:20.173Z,1.50
2022-08-22T12:54:18.913Z,0.90
2022-08-22T12:57:23.534Z,1.73
2022-08-22T12:59:55.284Z,1.17
2022-08-22T13:02:29.829Z,1.30
2022-08-22T13:05:03.072Z,1.52
2022-08-22T13:07:32.920Z,0.90
2022-08-22T13:10:03.570Z,1.02
2022-08-22T13:12:44.040Z,1.50
2022-08-22T13:15:22.767Z,1.00
2022-08-22T13:17:53.423Z,1.10
2022-08-22T13:20:34.419Z,1.10
2022-08-22T13:23:11.061Z,1.00
2022-08-22T13:26:07.583Z,1.48
2022-08-22T13:28:41.774Z,1.52
2022-08-22T13:31:09.916Z,1.48
2022-08-22T13:33:46.993Z,1.27
2022-08-22T13:36:18.079Z,0.93
2022-08-22T13:38:48.813Z,1.33
2022-08-22T13:41:25.011Z,0.85
2022-08-22T13:44:06.390Z,1.63
2022-08-22T13:46:37.427Z,0.80
2022-08-22T13:49:18.050Z,1.10
2022-08-22T13:51:48.148Z,1.20
2022-08-22T13:54:36.429Z,1.00
2022-08-22T13:57:17.248Z,1.75
2022-08-22T14:00:11.419Z,0.93
2022-08-22T14:02:43.281Z,1.05
2022-08-22T14:05:16.963Z,1.08
2022-08-22T14:07:55.536Z,1.10
2022-08-22T14:10:29.423Z,1.00
2022-08-22T14:12:56.135Z,0.97
2022-08-22T14:15:33.908Z,1.00
2022-08-22T14:18:30.080Z,0.90
2022-08-22T14:21:40.198Z,1.25
2022-08-22T14:24:28.434Z,1.30
2022-08-22T14:27:05.336Z,1.20
2022-08-22T14:30:01.534Z,0.77
2022-08-22T14:32:46.736Z,0.90
2022-08-22T14:35:34.672Z,1.10
2022-08-22T14:38:29.993Z,0.85
2022-08-22T14:41:21.961Z,0.80
2022-08-22T14:44:01.640Z,0.90
2022-08-22T14:46:49.376Z,1.15
2022-08-22T14:49:18.896Z,1.00
2022-08-22T14:52:19.404Z,1.00
2022-08-22T14:54:46.190Z,0.80
2022-08-22T14:57:20.401Z,1.20
2022-08-22T14:59:50.537Z,0.95
2022-08-22T15:02:28.001Z,0.95
2022-08-22T15:04:56.195Z,0.80
2022-08-22T15:07:27.217Z,1.00
2022-08-22T15:10:01.064Z,1.00
2022-08-22T15:12:38.632Z,1.00
2022-08-22T15:15:49.698Z,1.00
2022-08-22T15:18:29.925Z,1.00
2022-08-22T15:21:24.522Z,0.90
2022-08-22T15:23:54.740Z,1.00
2022-08-22T15:26:32.752Z,1.30
2022-08-22T15:29:07.337Z,1.05
2022-08-22T15:31:34.950Z,0.90
2022-08-22T15:34:08.329Z,1.07
2022-08-22T15:36:36.045Z,1.15
2022-08-22T15:39:27.131Z,1.15
2022-08-22T15:41:54.387Z,1.52
2022-08-22T15:44:30.801Z,1.48
2022-08-22T15:47:01.913Z,1.43
2022-08-22T15:49:50.323Z,1.33
2022-08-22T15:52:24.212Z,1.00
2022-08-22T15:54:57.052Z,0.65
2022-08-22T15:57:40.291Z,1.00
2022-08-22T16:00:27.932Z,0.80
2022-08-22T16:03:11.585Z,1.00
2022-08-22T16:05:55.483Z,1.02
2022-08-22T16:08:36.020Z,1.10
2022-08-22T16:11:02.419Z,1.40
2022-08-22T16:13:29.589Z,0.80
2022-08-22T16:16:14.851Z,1.23
2022-08-22T16:18:42.444Z,0.93
2022-08-22T16:21:13.298Z,1.20
2022-08-22T16:23:49.598Z,0.98
2022-08-22T16:26:38.652Z,1.17
2022-08-22T16:29:14.980Z,1.08
2022-08-22T16:31:43.842Z,0.88
2022-08-22T16:34:16.526Z,1.20
2022-08-22T16:37:23.283Z,1.17
2022-08-22T16:40:08.035Z,0.97
2022-08-22T16:42:43.306Z,0.85
2022-08-22T16:45:16.116Z,1.02
2022-08-22T16:48:02.283Z,0.90
2022-08-22T16:50:37.253Z,1.10
2022-08-22T16:53:06.245Z,1.50
2022-08-22T16:55:35.870Z,1.13
2022-08-22T16:58:16.845Z,1.10
2022-08-22T17:01:05.196Z,1.17
2022-08-22T17:03:34.726Z,1.23
2022-08-22T17:06:37.409Z,1.10
2022-08-22T17:09:28.834Z,1.00
2022-08-22T17:12:22.367Z,1.38
2022-08-22T17:15:07.689Z,0.90
2022-08-22T17:17:40.977Z,1.67
2022-08-22T17:20:35.292Z,1.07
2022-08-22T17:23:23.328Z,1.05
2022-08-22T17:26:13.555Z,1.38
2022-08-22T17:29:00.814Z,0.95
2022-08-22T17:32:04.880Z,1.48
2022-08-22T17:34:55.785Z,1.37
2022-08-22T17:37:23.304Z,1.63
2022-08-22T17:40:08.628Z,1.27
2022-08-22T17:42:50.171Z,1.80
2022-08-22T17:45:20.062Z,1.60
2022-08-22T17:48:00.684Z,1.30
2022-08-22T17:50:39.041Z,1.27
2022-08-22T17:53:11.741Z,1.17
2022-08-22T17:56:12.040Z,1.35
2022-08-22T17:58:57.991Z,1.38
2022-08-22T18:01:49.196Z,1.90
2022-08-22T18:04:48.176Z,1.48
2022-08-22T18:07:14.601Z,1.20
2022-08-22T18:10:04.714Z,1.33
2022-08-22T18:13:07.503Z,1.48
2022-08-22T18:15:51.269Z,1.70
2022-08-22T18:18:31.635Z,1.70
2022-08-22T18:21:20.873Z,1.45
2022-08-22T18:24:18.009Z,1.50
2022-08-22T18:27:04.565Z,1.40
2022-08-22T18:29:45.642Z,1.20
2022-08-22T18:32:41.957Z,1.55
2022-08-22T18:35:19.777Z,1.63
2022-08-22T18:37:56.329Z,1.80
2022-08-22T18:40:49.881Z,1.67
2022-08-22T18:43:26.016Z,1.80
2022-08-22T18:45:52.504Z,1.30
2022-08-22T18:48:30.153Z,1.80
2022-08-22T18:51:15.420Z,1.00
2022-08-22T18:54:19.670Z,1.63
2022-08-22T18:56:59.604Z,2.00
2022-08-22T18:59:38.031Z,1.40
2022-08-22T19:02:12.574Z,1.40
2022-08-22T19:04:58.474Z,1.00
2022-08-22T19:08:02.556Z,1.40
2022-08-22T19:10:53.084Z,1.60
2022-08-22T19:13:44.361Z,1.42
2022-08-22T19:17:08.279Z,1.40
2022-08-22T19:20:07.650Z,1.60
2022-08-22T19:22:36.274Z,1.80
2022-08-22T19:25:06.061Z,1.17
2022-08-22T19:27:40.449Z,1.42
2022-08-22T19:30:48.916Z,1.50
2022-08-22T19:33:27.695Z,1.58
2022-08-22T19:36:08.933Z,1.50
2022-08-22T19:38:57.728Z,1.50
2022-08-22T19:41:52.349Z,1.52
2022-08-22T19:44:18.768Z,1.55
2022-08-22T19:47:07.767Z,1.52
2022-08-22T19:49:40.748Z,1.52
2022-08-22T19:52:16.210Z,1.63
2022-08-22T19:54:55.639Z,2.10
2022-08-22T19:57:28.041Z,2.25
2022-08-22T20:00:09.412Z,1.90
2022-08-22T20:02:55.466Z,1.92
2022-08-22T20:05:58.708Z,1.90
2022-08-22T20:08:48.501Z,2.03
2022-08-22T20:11:37.728Z,1.95
2022-08-22T20:14:18.498Z,1.95
2022-08-22T20:17:05.062Z,2.05
2022-08-22T20:22:44.187Z,2.00
2022-08-22T20:25:43.326Z,2.00
2022-08-22T20:28:13.498Z,2.20
2022-08-22T20:30:46.898Z,1.92
2022-08-22T20:33:25.383Z,1.93
2022-08-22T20:35:59.111Z,1.70
2022-08-22T20:38:39.570Z,2.10
2022-08-22T20:41:21.392Z,2.30
2022-08-22T20:44:21.692Z,2.45
2022-08-22T20:46:53.497Z,1.90
2022-08-22T20:49:26.047Z,2.40
2022-08-22T20:52:27.828Z,2.25
2022-08-22T20:55:19.435Z,1.83
2022-08-22T20:57:52.167Z,2.22
2022-08-22T21:00:23.090Z,2.40
2022-08-22T21:03:15.352Z,2.00
2022-08-22T21:05:44.782Z,2.20
2022-08-22T21:08:24.810Z,2.20
2022-08-22T21:11:17.456Z,2.30
2022-08-22T21:13:43.980Z,2.83
2022-08-22T21:16:15.399Z,2.05
2022-08-22T21:18:48.013Z,2.40
2022-08-22T21:21:17.925Z,1.92
2022-08-22T21:24:00.595Z,2.25
2022-08-22T21:26:32.597Z,2.53
2022-08-22T21:29:01.771Z,2.22
2022-08-22T21:31:35.299Z,2.40
2022-08-22T21:34:03.377Z,2.72
2022-08-22T21:36:31.799Z,2.05
2022-08-22T21:39:05.664Z,2.23
2022-08-22T21:41:41.372Z,2.33
2022-08-22T21:44:41.501Z,2.80
2022-08-22T21:47:31.119Z,2.10
2022-08-22T21:50:13.205Z,2.03
2022-08-22T21:52:53.382Z,2.10
2022-08-22T21:55:43.091Z,2.92
2022-08-22T21:58:36.919Z,2.55
2022-08-22T22:01:29.542Z,2.33
2022-08-22T22:03:58.932Z,2.67
2022-08-22T22:06:26.559Z,2.57
2022-08-22T22:08:53.214Z,2.33
2022-08-22T22:11:19.763Z,2.45
2022-08-22T22:13:46.555Z,2.42
2022-08-22T22:16:13.350Z,2.38
2022-08-22T22:18:40.611Z,2.20
2022-08-22T22:21:07.686Z,2.30
2022-08-22T22:23:34.197Z,2.75
2022-08-22T22:26:03.758Z,2.70
2022-08-22T22:28:34.439Z,2.50
2022-08-22T22:31:01.444Z,1.97
2022-08-22T22:33:30.797Z,2.33
2022-08-22T22:36:02.803Z,2.40
2022-08-22T22:38:29.274Z,2.20
2022-08-22T22:40:56.500Z,3.10
2022-08-22T22:43:22.972Z,2.80
2022-08-22T22:45:49.920Z,2.47
2022-08-22T22:48:24.350Z,2.20
2022-08-22T22:50:52.983Z,2.97
2022-08-22T22:53:28.469Z,2.58
2022-08-22T22:56:06.320Z,2.70
2022-08-22T22:58:35.403Z,2.70
2022-08-22T23:01:16.125Z,2.50
2022-08-22T23:03:43.477Z,2.60
2022-08-22T23:06:11.665Z,2.50
2022-08-22T23:08:38.122Z,2.33
2022-08-22T23:11:17.696Z,2.78
2022-08-22T23:13:44.263Z,3.15
2022-08-22T23:16:13.842Z,2.63
2022-08-22T23:18:41.367Z,3.60
2022-08-22T23:21:11.829Z,3.20
2022-08-22T23:23:38.369Z,3.47
2022-08-22T23:26:04.971Z,3.05
2022-08-22T23:28:31.491Z,3.42
2022-08-22T23:31:09.345Z,3.47
2022-08-22T23:33:35.903Z,2.80
2022-08-22T23:36:09.891Z,2.78
2022-08-22T23:38:36.406Z,3.20
2022-08-22T23:41:09.823Z,3.00
2022-08-22T23:43:36.791Z,3.10
2022-08-22T23:46:03.460Z,3.03
2022-08-22T23:48:30.049Z,3.08
2022-08-22T23:50:56.527Z,3.58
2022-08-22T23:53:23.101Z,3.00
2022-08-22T23:55:49.568Z,3.22
2022-08-22T23:58:21.716Z,3.30
